Time;durP1;ratioP1;P1;durP2;ratioP2;P2;SDS_P1;SDS_P2;PMS_P1;PMS_P2;Temp;Humidity;BMP_temperature;BMP_pressure;BME280_temperature;BME280_humidity;BME280_pressure;Samples;Min_cycle;Max_cycle;Signal;HPM_P1;HPM_P2
2023/06/24 00:00:55;;;;;;;;;;;24.20;53.90;;;;;;5097577;28;20306;-62
2023/06/24 00:03:21;;;;;;;;;;;24.10;53.80;;;;;;5097395;28;20332;-62
2023/06/24 00:05:49;;;;;;;;;;;24.10;53.80;;;;;;5097209;28;19919;-62
2023/06/24 00:08:19;;;;;;;;;;;24.10;53.80;;;;;;5097035;28;19927;-62
2023/06/24 00:10:46;;;;;;;;;;;24.10;53.80;;;;;;5097064;28;19985;-61
2023/06/24 00:13:12;;;;;;;;;;;24.10;53.80;;;;;;5096804;28;19967;-61
2023/06/24 00:15:42;;;;;;;;;;;24.10;53.80;;;;;;5096964;28;20012;-62
2023/06/24 00:18:10;;;;;;;;;;;24.10;53.80;;;;;;5096824;28;19920;-62
2023/06/24 00:20:35;;;;;;;;;;;24.10;53.90;;;;;;5097131;28;20394;-62
2023/06/24 00:23:01;;;;;;;;;;;24.10;54.60;;;;;;5130971;27;20006;-62
2023/06/24 00:25:27;;;;;;;;;;;24.10;53.90;;;;;;5115084;28;19963;-62
2023/06/24 00:27:52;;;;;;;;;;;24.10;53.90;;;;;;5114895;28;19924;-62
2023/06/24 00:30:18;;;;;;;;;;;24.10;54.00;;;;;;5131153;27;20285;-62
2023/06/24 00:32:43;;;;;;;;;;;24.10;53.90;;;;;;5114684;28;19919;-62
2023/06/24 00:35:10;;;;;;;;;;;24.10;53.90;;;;;;5096271;28;20007;-62
2023/06/24 00:37:36;;;;;;;;;;;24.00;53.90;;;;;;5096813;28;19959;-62
2023/06/24 00:40:03;;;;;;;;;;;24.00;53.90;;;;;;5096507;28;19993;-62
2023/06/24 00:42:29;;;;;;;;;;;24.00;53.90;;;;;;5096743;28;19920;-62
2023/06/24 00:44:54;;;;;;;;;;;24.00;53.90;;;;;;5130469;27;20446;-62
2023/06/24 00:47:19;;;;;;;;;;;24.00;53.90;;;;;;5130440;27;19995;-62
2023/06/24 00:49:45;;;;;;;;;;;24.00;53.90;;;;;;5096496;28;19924;-62
2023/06/24 00:52:15;;;;;;;;;;;24.00;53.90;;;;;;5096608;28;19920;-62
2023/06/24 00:54:42;;;;;;;;;;;24.00;54.00;;;;;;5096157;28;19968;-62
2023/06/24 00:57:07;;;;;;;;;;;23.90;53.90;;;;;;5130286;27;20382;-61
2023/06/24 00:59:34;;;;;;;;;;;23.90;53.90;;;;;;5096309;28;19924;-62
2023/06/24 01:02:04;;;;;;;;;;;23.90;53.90;;;;;;5130185;27;20018;-61
2023/06/24 01:04:30;;;;;;;;;;;23.90;54.00;;;;;;5095980;28;20019;-61
2023/06/24 01:06:57;;;;;;;;;;;23.90;54.00;;;;;;5114263;28;19920;-64
2023/06/24 01:09:23;;;;;;;;;;;23.90;54.10;;;;;;5130247;27;19955;-62
2023/06/24 01:11:48;;;;;;;;;;;23.90;54.00;;;;;;5096172;28;20023;-61
2023/06/24 01:14:14;;;;;;;;;;;23.90;54.00;;;;;;5095881;28;19924;-62
2023/06/24 01:19:28;;;;;;;;;;;23.80;53.90;;;;;;5089972;28;19916;-62
2023/06/24 01:22:06;;;;;;;;;;;23.90;54.10;;;;;;5089890;28;19920;-61
2023/06/24 01:24:38;;;;;;;;;;;23.80;54.00;;;;;;5088430;28;19969;-62
2023/06/24 01:32:45;;;;;;;;;;;23.80;54.00;;;;;;5110394;27;19912;-62
2023/06/24 01:35:12;;;;;;;;;;;23.80;54.00;;;;;;5108720;28;19966;-62
2023/06/24 01:37:42;;;;;;;;;;;23.80;54.10;;;;;;5110208;28;20335;-62
2023/06/24 01:40:10;;;;;;;;;;;23.80;54.10;;;;;;5109162;28;19924;-62
2023/06/24 01:42:38;;;;;;;;;;;23.70;54.00;;;;;;5108838;28;19973;-62
2023/06/24 01:45:04;;;;;;;;;;;23.70;54.00;;;;;;5108718;28;20356;-62
2023/06/24 01:47:30;;;;;;;;;;;23.70;54.10;;;;;;5108647;28;19935;-62
2023/06/24 01:49:57;;;;;;;;;;;23.70;54.10;;;;;;5108676;28;19920;-62
2023/06/24 01:52:23;;;;;;;;;;;23.70;54.00;;;;;;5108565;28;19920;-62
2023/06/24 01:54:50;;;;;;;;;;;23.70;54.00;;;;;;5108956;28;19920;-62
2023/06/24 01:57:16;;;;;;;;;;;23.70;54.10;;;;;;5109979;28;19927;-62
2023/06/24 01:59:44;;;;;;;;;;;23.70;54.10;;;;;;5108744;28;19920;-62
2023/06/24 02:02:11;;;;;;;;;;;23.70;54.10;;;;;;5108729;28;19927;-62
2023/06/24 02:04:38;;;;;;;;;;;23.70;54.10;;;;;;5109720;28;19924;-62
2023/06/24 02:07:04;;;;;;;;;;;23.70;54.10;;;;;;5108537;28;19926;-62
2023/06/24 02:09:31;;;;;;;;;;;23.60;54.10;;;;;;5108287;28;19920;-62
2023/06/24 02:11:57;;;;;;;;;;;23.60;54.10;;;;;;5108414;28;19924;-62
2023/06/24 02:14:23;;;;;;;;;;;23.60;54.10;;;;;;5109673;28;19920;-62
2023/06/24 02:16:49;;;;;;;;;;;23.60;54.10;;;;;;5108642;28;19927;-62
2023/06/24 02:19:17;;;;;;;;;;;23.60;54.10;;;;;;5108203;28;19965;-62
2023/06/24 02:21:44;;;;;;;;;;;23.60;54.10;;;;;;5109235;28;20292;-62
2023/06/24 02:24:10;;;;;;;;;;;23.60;54.10;;;;;;5107980;28;19919;-61
2023/06/24 02:26:40;;;;;;;;;;;23.60;54.10;;;;;;5107932;28;19924;-62
2023/06/24 02:29:08;;;;;;;;;;;23.60;54.10;;;;;;5109414;28;19927;-62
2023/06/24 02:31:33;;;;;;;;;;;23.50;54.10;;;;;;5107688;28;20367;-62
2023/06/24 02:33:59;;;;;;;;;;;23.60;54.10;;;;;;5142155;27;20007;-61
2023/06/24 02:36:24;;;;;;;;;;;23.50;54.10;;;;;;5109086;28;19920;-62
2023/06/24 02:38:50;;;;;;;;;;;23.50;54.10;;;;;;5107946;28;19999;-62
2023/06/24 02:41:15;;;;;;;;;;;23.50;54.10;;;;;;5107757;28;19920;-62
2023/06/24 02:43:41;;;;;;;;;;;23.50;54.10;;;;;;5128776;27;19945;-62
2023/06/24 02:46:07;;;;;;;;;;;23.50;54.10;;;;;;5128205;27;19924;-62
2023/06/24 02:48:34;;;;;;;;;;;23.50;54.10;;;;;;5093960;28;19920;-62
2023/06/24 02:51:01;;;;;;;;;;;23.50;54.10;;;;;;5094097;28;19931;-62
2023/06/24 02:53:27;;;;;;;;;;;23.50;54.10;;;;;;5095127;28;20280;-62
2023/06/24 02:55:54;;;;;;;;;;;23.40;54.00;;;;;;5094216;28;19920;-62
2023/06/24 02:58:20;;;;;;;;;;;23.50;54.10;;;;;;5093724;28;19920;-61
2023/06/24 03:00:45;;;;;;;;;;;23.40;54.10;;;;;;5094057;28;19965;-61
2023/06/24 03:03:11;;;;;;;;;;;23.50;54.10;;;;;;5093686;28;19920;-62
2023/06/24 03:05:37;;;;;;;;;;;23.40;54.10;;;;;;5093730;28;19931;-61
2023/06/24 03:08:03;;;;;;;;;;;23.40;54.10;;;;;;5094802;28;19920;-62
2023/06/24 03:10:29;;;;;;;;;;;23.40;54.10;;;;;;5093549;28;20383;-62
2023/06/24 03:12:54;;;;;;;;;;;23.40;54.10;;;;;;5093695;28;19920;-62
2023/06/24 03:15:20;;;;;;;;;;;23.40;54.10;;;;;;5093800;28;19924;-62
2023/06/24 03:17:46;;;;;;;;;;;23.40;54.10;;;;;;5094755;28;19927;-62
2023/06/24 03:20:11;;;;;;;;;;;23.40;54.10;;;;;;5093688;28;19924;-61
2023/06/24 03:22:37;;;;;;;;;;;23.30;54.10;;;;;;5094625;28;20620;-62
2023/06/24 03:25:02;;;;;;;;;;;23.40;54.10;;;;;;5093367;28;19969;-62
2023/06/24 03:27:28;;;;;;;;;;;23.30;54.00;;;;;;5093243;28;19920;-62
2023/06/24 03:29:53;;;;;;;;;;;23.30;54.10;;;;;;5093157;28;19920;-62
2023/06/24 03:32:19;;;;;;;;;;;23.40;54.10;;;;;;5092845;28;20003;-61
2023/06/24 03:34:44;;;;;;;;;;;23.30;54.10;;;;;;5094280;28;19920;-61
2023/06/24 03:37:10;;;;;;;;;;;23.30;54.10;;;;;;5094806;28;19928;-62
2023/06/24 03:39:36;;;;;;;;;;;23.30;54.10;;;;;;5094220;28;19920;-62
2023/06/24 03:42:01;;;;;;;;;;;23.30;54.10;;;;;;5093018;28;19920;-62
2023/06/24 03:44:27;;;;;;;;;;;23.30;54.10;;;;;;5093184;28;19998;-62
2023/06/24 03:46:52;;;;;;;;;;;23.30;54.10;;;;;;5093127;28;19920;-62
2023/06/24 03:49:18;;;;;;;;;;;23.30;54.10;;;;;;5093973;28;19973;-61
2023/06/24 03:51:43;;;;;;;;;;;23.20;54.10;;;;;;5092714;28;19924;-61
2023/06/24 03:54:09;;;;;;;;;;;23.30;54.20;;;;;;5092127;28;20006;-62
2023/06/24 03:56:34;;;;;;;;;;;23.30;54.20;;;;;;5092963;28;20013;-62
2023/06/24 03:59:00;;;;;;;;;;;23.20;54.10;;;;;;5092549;28;20391;-61
2023/06/24 04:01:25;;;;;;;;;;;23.20;54.20;;;;;;5092814;28;19920;-62
2023/06/24 04:03:51;;;;;;;;;;;23.20;54.20;;;;;;5092522;28;19985;-62
2023/06/24 04:06:16;;;;;;;;;;;23.20;54.20;;;;;;5093793;28;19962;-61
2023/06/24 04:08:43;;;;;;;;;;;23.20;54.20;;;;;;5092725;28;20398;-62
2023/06/24 04:11:08;;;;;;;;;;;23.20;54.20;;;;;;5092144;28;19931;-62
2023/06/24 04:13:34;;;;;;;;;;;23.20;54.20;;;;;;5092868;28;19920;-62
2023/06/24 04:15:59;;;;;;;;;;;23.20;54.30;;;;;;5092495;28;19920;-62
2023/06/24 04:18:25;;;;;;;;;;;23.20;54.30;;;;;;5092284;28;19927;-62
2023/06/24 04:20:50;;;;;;;;;;;23.20;54.30;;;;;;5092421;28;19940;-62
2023/06/24 04:23:16;;;;;;;;;;;23.20;55.00;;;;;;5092528;28;19924;-62
2023/06/24 04:25:42;;;;;;;;;;;23.10;54.30;;;;;;5093121;28;20394;-62
2023/06/24 04:28:08;;;;;;;;;;;23.20;54.30;;;;;;5093498;28;19920;-62
2023/06/24 04:30:35;;;;;;;;;;;23.20;54.40;;;;;;5098148;28;19923;-61
2023/06/24 04:33:00;;;;;;;;;;;23.20;54.40;;;;;;5095359;28;19948;-62
2023/06/24 04:35:26;;;;;;;;;;;23.10;54.30;;;;;;5129373;27;20018;-62
2023/06/24 04:37:51;;;;;;;;;;;23.10;54.40;;;;;;5113423;28;19969;-62
2023/06/24 04:40:18;;;;;;;;;;;23.10;54.40;;;;;;5095312;28;19939;-62
2023/06/24 04:42:44;;;;;;;;;;;23.10;54.40;;;;;;5095070;28;19930;-62
2023/06/24 04:45:09;;;;;;;;;;;23.10;54.40;;;;;;5129586;27;20006;-61
2023/06/24 04:47:35;;;;;;;;;;;23.10;54.40;;;;;;5113257;28;19920;-62
2023/06/24 04:50:01;;;;;;;;;;;23.10;54.50;;;;;;5095266;28;19965;-62
2023/06/24 04:52:27;;;;;;;;;;;23.10;54.50;;;;;;5095292;28;20393;-61
2023/06/24 04:54:52;;;;;;;;;;;23.10;54.50;;;;;;5113204;28;20371;-61
2023/06/24 04:57:34;;;;;;;;;;;23.10;54.50;;;;;;5094849;28;20012;-62
2023/06/24 04:59:59;;;;;;;;;;;23.10;54.50;;;;;;5095209;28;20010;-62
2023/06/24 05:02:25;;;;;;;;;;;23.20;54.60;;;;;;5113151;28;20027;-62
2023/06/24 05:04:51;;;;;;;;;;;23.10;54.50;;;;;;5129096;27;20366;-62
2023/06/24 05:07:16;;;;;;;;;;;23.10;54.50;;;;;;5094688;28;19924;-61
2023/06/24 05:09:43;;;;;;;;;;;23.10;54.50;;;;;;5129094;27;19924;-61
2023/06/24 05:12:08;;;;;;;;;;;23.10;54.60;;;;;;5094513;28;19928;-62
2023/06/24 05:14:34;;;;;;;;;;;23.10;54.60;;;;;;5095078;28;19927;-62
2023/06/24 05:17:00;;;;;;;;;;;23.10;55.30;;;;;;5094624;28;19919;-62
2023/06/24 05:19:26;;;;;;;;;;;23.10;54.60;;;;;;5113036;28;19924;-62
2023/06/24 05:21:51;;;;;;;;;;;23.10;54.60;;;;;;5112856;28;20336;-62
2023/06/24 05:24:16;;;;;;;;;;;23.10;54.70;;;;;;5094507;28;20500;-62
2023/06/24 05:26:42;;;;;;;;;;;23.10;54.70;;;;;;5094488;28;19926;-62
2023/06/24 05:29:07;;;;;;;;;;;23.10;54.60;;;;;;5094763;28;19971;-62
2023/06/24 05:31:33;;;;;;;;;;;23.10;54.70;;;;;;5112498;28;19924;-62
2023/06/24 05:33:58;;;;;;;;;;;23.10;54.70;;;;;;5112795;28;19919;-61
2023/06/24 05:36:24;;;;;;;;;;;23.10;54.60;;;;;;5094490;28;19920;-62
2023/06/24 05:38:49;;;;;;;;;;;23.10;54.70;;;;;;5094707;28;19984;-62
2023/06/24 05:41:15;;;;;;;;;;;23.10;54.70;;;;;;5112734;28;19920;-62
2023/06/24 05:43:42;;;;;;;;;;;23.10;54.70;;;;;;5094381;28;20386;-62
2023/06/24 05:46:08;;;;;;;;;;;23.10;54.70;;;;;;5094711;28;20440;-61
2023/06/24 05:48:33;;;;;;;;;;;23.10;54.70;;;;;;5094285;28;20006;-62
2023/06/24 05:50:59;;;;;;;;;;;23.10;54.70;;;;;;5094261;28;20345;-62
2023/06/24 05:53:24;;;;;;;;;;;23.10;54.70;;;;;;5112515;28;19920;-61
2023/06/24 05:55:50;;;;;;;;;;;23.10;54.80;;;;;;5094571;28;19920;-62
2023/06/24 05:58:15;;;;;;;;;;;23.10;54.80;;;;;;5094038;28;19969;-61
2023/06/24 06:00:41;;;;;;;;;;;23.10;54.80;;;;;;5094567;28;20272;-62
2023/06/24 06:03:06;;;;;;;;;;;23.10;54.80;;;;;;5094405;28;19977;-62
2023/06/24 06:05:32;;;;;;;;;;;23.10;54.80;;;;;;5112520;28;19927;-62
2023/06/24 06:07:57;;;;;;;;;;;23.10;54.80;;;;;;5094217;28;19920;-62
2023/06/24 06:10:23;;;;;;;;;;;23.10;54.80;;;;;;5112351;28;19927;-62
2023/06/24 06:12:49;;;;;;;;;;;23.00;54.80;;;;;;5094117;28;19927;-61
2023/06/24 06:15:14;;;;;;;;;;;23.10;54.90;;;;;;5094412;28;19920;-62
2023/06/24 06:17:40;;;;;;;;;;;23.10;54.90;;;;;;5113693;28;20483;-62
2023/06/24 06:20:06;;;;;;;;;;;23.10;54.90;;;;;;5098174;28;19968;-62
2023/06/24 06:22:37;;;;;;;;;;;23.10;54.90;;;;;;5097979;28;20430;-62
2023/06/24 06:25:02;;;;;;;;;;;23.10;55.70;;;;;;5098011;28;20374;-62
2023/06/24 06:27:28;;;;;;;;;;;23.10;54.90;;;;;;5132212;27;19969;-62
2023/06/24 06:29:53;;;;;;;;;;;23.10;54.90;;;;;;5098004;28;19927;-61
2023/06/24 06:32:19;;;;;;;;;;;23.10;54.90;;;;;;5097435;28;20392;-62
2023/06/24 06:34:44;;;;;;;;;;;23.10;54.90;;;;;;5116152;28;19919;-62
2023/06/24 06:37:10;;;;;;;;;;;23.10;55.00;;;;;;5097698;28;19924;-62
2023/06/24 06:39:35;;;;;;;;;;;23.10;55.00;;;;;;5115906;28;19920;-61
2023/06/24 06:42:01;;;;;;;;;;;23.10;55.00;;;;;;5097586;28;19920;-62
2023/06/24 06:44:26;;;;;;;;;;;23.10;54.80;;;;;;5115632;28;19924;-62
2023/06/24 06:46:52;;;;;;;;;;;23.10;54.90;;;;;;5131791;27;19972;-62
2023/06/24 06:49:17;;;;;;;;;;;23.10;54.90;;;;;;5115741;28;20362;-62
2023/06/24 06:51:43;;;;;;;;;;;23.10;55.00;;;;;;5131555;27;19988;-62
2023/06/24 06:54:08;;;;;;;;;;;23.10;54.80;;;;;;5131772;27;19920;-62
2023/06/24 06:56:34;;;;;;;;;;;23.10;54.90;;;;;;5131429;27;19972;-62
2023/06/24 06:58:59;;;;;;;;;;;23.10;54.80;;;;;;5097067;28;19943;-62
2023/06/24 07:01:25;;;;;;;;;;;23.10;54.90;;;;;;5115386;28;19919;-61
2023/06/24 07:03:50;;;;;;;;;;;23.10;54.90;;;;;;5097400;28;19927;-62
2023/06/24 07:06:18;;;;;;;;;;;23.10;54.80;;;;;;5097041;28;20006;-62
2023/06/24 07:08:43;;;;;;;;;;;23.10;54.80;;;;;;5131524;27;19963;-62
2023/06/24 07:11:08;;;;;;;;;;;23.10;54.70;;;;;;5115156;28;19971;-62
2023/06/24 07:13:34;;;;;;;;;;;23.10;54.90;;;;;;5115265;28;20393;-62
2023/06/24 07:15:59;;;;;;;;;;;23.10;54.70;;;;;;5131293;27;19970;-62
2023/06/24 07:18:30;;;;;;;;;;;23.10;54.80;;;;;;5131074;27;19919;-62
2023/06/24 07:20:55;;;;;;;;;;;23.10;54.90;;;;;;5097052;28;20398;-61
2023/06/24 07:23:21;;;;;;;;;;;23.10;54.80;;;;;;5115069;28;19927;-62
2023/06/24 07:25:46;;;;;;;;;;;23.10;54.90;;;;;;5096929;28;20407;-62
2023/06/24 07:28:12;;;;;;;;;;;23.10;54.90;;;;;;5096748;28;19926;-62
2023/06/24 07:30:37;;;;;;;;;;;23.10;54.70;;;;;;5096197;28;20433;-62
2023/06/24 07:33:05;;;;;;;;;;;23.10;54.90;;;;;;5096559;28;19924;-62
2023/06/24 07:35:31;;;;;;;;;;;23.10;54.90;;;;;;5096781;28;19920;-62
2023/06/24 07:37:57;;;;;;;;;;;23.10;54.90;;;;;;5096404;28;19996;-61
2023/06/24 07:40:22;;;;;;;;;;;23.10;54.80;;;;;;5096420;28;19969;-61
2023/06/24 07:42:48;;;;;;;;;;;23.20;55.00;;;;;;5096604;28;19984;-62
2023/06/24 07:45:13;;;;;;;;;;;23.10;54.90;;;;;;5096294;28;19927;-62
2023/06/24 07:47:39;;;;;;;;;;;23.10;54.80;;;;;;5096433;28;19919;-62
2023/06/24 07:50:06;;;;;;;;;;;23.10;54.80;;;;;;5096235;28;19919;-62
2023/06/24 07:52:31;;;;;;;;;;;23.10;54.90;;;;;;5114357;28;19924;-62
2023/06/24 07:54:57;;;;;;;;;;;23.20;54.80;;;;;;5096385;28;19924;-62
2023/06/24 07:57:22;;;;;;;;;;;23.20;55.00;;;;;;5096064;28;20376;-62
2023/06/24 07:59:48;;;;;;;;;;;23.10;54.60;;;;;;5096220;28;19926;-62
2023/06/24 08:02:13;;;;;;;;;;;23.20;54.90;;;;;;5095938;28;19923;-61
2023/06/24 08:04:39;;;;;;;;;;;23.20;54.80;;;;;;5114235;28;19919;-62
2023/06/24 08:07:05;;;;;;;;;;;23.20;54.90;;;;;;5095988;28;19919;-62
2023/06/24 08:09:30;;;;;;;;;;;23.20;54.90;;;;;;5114102;28;20275;-62
2023/06/24 08:11:55;;;;;;;;;;;23.10;54.80;;;;;;5114018;28;19941;-62
2023/06/24 08:14:21;;;;;;;;;;;23.20;54.90;;;;;;5114017;28;19933;-62
2023/06/24 08:16:46;;;;;;;;;;;23.20;55.00;;;;;;5095939;28;19923;-62
2023/06/24 08:19:12;;;;;;;;;;;23.20;55.00;;;;;;5095953;28;19920;-62
2023/06/24 08:21:37;;;;;;;;;;;23.20;54.80;;;;;;5113814;28;20271;-62
2023/06/24 08:24:03;;;;;;;;;;;23.20;54.80;;;;;;5095446;28;20007;-62
2023/06/24 08:26:29;;;;;;;;;;;23.20;54.80;;;;;;5113740;28;19934;-62
2023/06/24 08:28:54;;;;;;;;;;;23.20;54.70;;;;;;5129826;27;19920;-62
2023/06/24 08:31:22;;;;;;;;;;;23.20;54.70;;;;;;5113426;28;20394;-62
2023/06/24 08:33:51;;;;;;;;;;;23.20;54.70;;;;;;5114111;28;20230;-62
2023/06/24 08:36:16;;;;;;;;;;;23.30;54.60;;;;;;5095318;28;19985;-62
2023/06/24 08:38:42;;;;;;;;;;;23.30;54.80;;;;;;5095200;28;19919;-62
2023/06/24 08:41:07;;;;;;;;;;;23.30;54.80;;;;;;5128858;27;19988;-62
2023/06/24 08:43:33;;;;;;;;;;;23.30;54.70;;;;;;5129636;27;19920;-62
2023/06/24 08:45:58;;;;;;;;;;;23.30;54.80;;;;;;5113354;28;20370;-62
2023/06/24 08:48:25;;;;;;;;;;;23.30;54.70;;;;;;5095058;28;19934;-62
2023/06/24 08:50:52;;;;;;;;;;;23.30;54.70;;;;;;5129021;27;19931;-62
2023/06/24 08:53:18;;;;;;;;;;;23.40;54.80;;;;;;5113400;28;19923;-62
2023/06/24 08:55:45;;;;;;;;;;;23.40;54.70;;;;;;5095236;28;20034;-62
2023/06/24 08:58:10;;;;;;;;;;;23.40;54.70;;;;;;5094815;28;19973;-62
2023/06/24 09:00:36;;;;;;;;;;;23.40;54.80;;;;;;5078194;28;20337;-62
2023/06/24 09:03:01;;;;;;;;;;;23.40;54.70;;;;;;5113070;28;19941;-62
2023/06/24 09:05:27;;;;;;;;;;;23.40;54.70;;;;;;5094726;28;19920;-62
2023/06/24 09:07:53;;;;;;;;;;;23.40;54.70;;;;;;5095121;28;20014;-62
2023/06/24 09:10:34;;;;;;;;;;;23.40;54.60;;;;;;5094602;28;20010;-62
2023/06/24 09:13:00;;;;;;;;;;;23.40;54.60;;;;;;5094736;28;20390;-62
2023/06/24 09:15:29;;;;;;;;;;;23.40;54.60;;;;;;5112861;28;19934;-62
2023/06/24 09:17:54;;;;;;;;;;;23.40;54.50;;;;;;5129170;27;19934;-62
2023/06/24 09:20:22;;;;;;;;;;;23.50;54.60;;;;;;5113021;28;19920;-62
2023/06/24 09:22:48;;;;;;;;;;;23.50;54.60;;;;;;5094929;28;20112;-62
2023/06/24 09:25:21;;;;;;;;;;;23.50;54.50;;;;;;5094765;28;19919;-62
2023/06/24 09:27:47;;;;;;;;;;;23.50;54.40;;;;;;5094833;28;19919;-62
2023/06/24 09:30:20;;;;;;;;;;;23.50;54.40;;;;;;5094467;28;19920;-62
2023/06/24 09:32:46;;;;;;;;;;;23.50;54.40;;;;;;5112966;28;19924;-61
2023/06/24 09:35:11;;;;;;;;;;;23.50;54.30;;;;;;5094493;28;19919;-62
2023/06/24 09:37:37;;;;;;;;;;;23.50;54.30;;;;;;5094458;28;20014;-62
2023/06/24 09:40:05;;;;;;;;;;;23.60;54.30;;;;;;5094900;28;19919;-62
2023/06/24 09:42:31;;;;;;;;;;;23.60;54.30;;;;;;5094713;28;19919;-62
2023/06/24 09:44:57;;;;;;;;;;;23.60;54.20;;;;;;5094707;28;20018;-62
2023/06/24 09:47:25;;;;;;;;;;;23.60;54.20;;;;;;5094314;28;20326;-62
2023/06/24 09:49:51;;;;;;;;;;;23.60;54.20;;;;;;5094717;28;19920;-62
2023/06/24 09:52:19;;;;;;;;;;;23.60;54.20;;;;;;5113365;28;19949;-62
2023/06/24 09:54:46;;;;;;;;;;;23.60;54.10;;;;;;5098493;28;19977;-61
2023/06/24 09:57:13;;;;;;;;;;;23.70;54.20;;;;;;5098720;28;19969;-62
2023/06/24 09:59:39;;;;;;;;;;;23.70;54.10;;;;;;5098518;28;19927;-62
2023/06/24 10:02:07;;;;;;;;;;;23.70;54.10;;;;;;5098302;28;19927;-62
2023/06/24 10:04:32;;;;;;;;;;;23.70;54.10;;;;;;5098351;28;19963;-61
2023/06/24 10:06:58;;;;;;;;;;;23.70;54.10;;;;;;5096133;28;19986;-62
2023/06/24 10:09:24;;;;;;;;;;;23.70;54.10;;;;;;5085121;28;19920;-62
2023/06/24 10:11:49;;;;;;;;;;;23.70;54.10;;;;;;5094223;28;19920;-61
2023/06/24 10:14:15;;;;;;;;;;;23.70;54.10;;;;;;5096222;28;19976;-62
2023/06/24 10:16:42;;;;;;;;;;;23.70;54.10;;;;;;5095859;28;19920;-61
2023/06/24 10:19:07;;;;;;;;;;;23.70;54.00;;;;;;5096130;28;20017;-62
2023/06/24 10:21:53;;;;;;;;;;;23.70;54.00;;;;;;5078006;28;19974;-61
2023/06/24 10:24:34;;;;;;;;;;;23.70;54.00;;;;;;5100008;28;19949;-61
2023/06/24 10:27:01;;;;;;;;;;;23.80;54.00;;;;;;5097710;28;19920;-62
2023/06/24 10:29:34;;;;;;;;;;;23.80;54.00;;;;;;5097736;28;19920;-61
2023/06/24 10:32:02;;;;;;;;;;;23.70;53.90;;;;;;5097449;28;19976;-61
2023/06/24 10:34:30;;;;;;;;;;;23.80;54.00;;;;;;5097635;28;20010;-61
2023/06/24 10:36:58;;;;;;;;;;;23.80;54.00;;;;;;5115985;28;19927;-61
2023/06/24 10:39:43;;;;;;;;;;;23.80;54.00;;;;;;5097860;28;20015;-61
2023/06/24 10:42:29;;;;;;;;;;;23.80;54.00;;;;;;5097467;28;20008;-62
2023/06/24 10:44:56;;;;;;;;;;;23.80;54.00;;;;;;5097337;28;19920;-62
2023/06/24 10:47:22;;;;;;;;;;;23.80;54.00;;;;;;5096794;28;19923;-62
2023/06/24 10:49:48;;;;;;;;;;;23.80;54.00;;;;;;5094148;28;20366;-62
2023/06/24 10:52:14;;;;;;;;;;;23.80;54.00;;;;;;5131455;27;19950;-62
2023/06/24 10:54:40;;;;;;;;;;;23.80;54.00;;;;;;5097650;28;19982;-62
2023/06/24 10:57:07;;;;;;;;;;;23.80;54.00;;;;;;5115602;28;20386;-62
2023/06/24 10:59:39;;;;;;;;;;;23.80;54.00;;;;;;5097397;28;20366;-62
2023/06/24 11:02:04;;;;;;;;;;;23.80;54.00;;;;;;5131391;27;20006;-62
2023/06/24 11:04:30;;;;;;;;;;;23.80;54.00;;;;;;5096900;28;20015;-62
2023/06/24 11:06:58;;;;;;;;;;;23.80;54.00;;;;;;5097355;28;19962;-62
2023/06/24 11:09:23;;;;;;;;;;;23.80;54.00;;;;;;5131187;27;19920;-61
2023/06/24 11:11:49;;;;;;;;;;;23.90;54.10;;;;;;5096949;28;19924;-62
2023/06/24 11:14:15;;;;;;;;;;;23.90;54.10;;;;;;5096859;28;19926;-62
2023/06/24 11:16:41;;;;;;;;;;;23.80;54.00;;;;;;5115192;28;19927;-62
2023/06/24 11:19:06;;;;;;;;;;;23.90;54.00;;;;;;5115128;28;20305;-62
2023/06/24 11:21:32;;;;;;;;;;;23.90;54.10;;;;;;5096720;28;20014;-62
2023/06/24 11:24:01;;;;;;;;;;;23.90;54.00;;;;;;5096886;28;19931;-61
2023/06/24 11:26:27;;;;;;;;;;;23.90;54.00;;;;;;5115173;28;19969;-61
2023/06/24 11:28:53;;;;;;;;;;;23.90;54.00;;;;;;5096985;28;19919;-62
2023/06/24 11:31:18;;;;;;;;;;;23.90;54.00;;;;;;5114484;28;19924;-62
2023/06/24 11:33:48;;;;;;;;;;;23.90;54.00;;;;;;5130646;27;19968;-62
2023/06/24 11:36:16;;;;;;;;;;;23.90;54.00;;;;;;5114696;28;19919;-62
2023/06/24 11:38:42;;;;;;;;;;;23.90;54.00;;;;;;5096741;28;19926;-62
2023/06/24 11:41:07;;;;;;;;;;;23.90;53.90;;;;;;5114775;28;19994;-62
2023/06/24 11:43:33;;;;;;;;;;;23.90;54.00;;;;;;5096724;28;19927;-62
2023/06/24 11:45:58;;;;;;;;;;;23.90;53.90;;;;;;5130337;27;19923;-62
2023/06/24 11:48:27;;;;;;;;;;;24.00;54.00;;;;;;5096573;28;19920;-61
2023/06/24 11:50:54;;;;;;;;;;;23.90;53.90;;;;;;5096231;28;20390;-64
2023/06/24 11:53:40;;;;;;;;;;;24.00;54.00;;;;;;5114481;28;20344;-62
2023/06/24 11:56:05;;;;;;;;;;;24.00;54.00;;;;;;5130407;27;19926;-62
2023/06/24 11:58:33;;;;;;;;;;;24.00;54.00;;;;;;5096086;28;20382;-62
2023/06/24 12:00:59;;;;;;;;;;;24.00;53.90;;;;;;5114248;28;20267;-62
2023/06/24 12:03:24;;;;;;;;;;;24.00;53.90;;;;;;5114223;28;19973;-62
2023/06/24 12:05:50;;;;;;;;;;;24.00;53.90;;;;;;5114042;28;19920;-62
2023/06/24 12:08:15;;;;;;;;;;;24.00;53.90;;;;;;5095883;28;19919;-62
2023/06/24 12:10:43;;;;;;;;;;;24.00;53.90;;;;;;5113878;28;19968;-62
2023/06/24 12:13:08;;;;;;;;;;;24.00;53.90;;;;;;5114146;28;19926;-62
2023/06/24 12:15:34;;;;;;;;;;;24.10;54.00;;;;;;5113169;28;19919;-62
2023/06/24 12:18:01;;;;;;;;;;;24.00;53.90;;;;;;5095636;28;20378;-61
2023/06/24 12:20:26;;;;;;;;;;;24.10;53.90;;;;;;5113814;28;20286;-62
2023/06/24 12:22:52;;;;;;;;;;;24.10;53.90;;;;;;5130007;27;20006;-62
2023/06/24 12:25:18;;;;;;;;;;;24.10;53.90;;;;;;5095791;28;19920;-64
2023/06/24 12:27:43;;;;;;;;;;;24.10;53.90;;;;;;5095440;28;20396;-62
2023/06/24 12:30:10;;;;;;;;;;;24.10;53.90;;;;;;5095506;28;19920;-62
2023/06/24 12:32:36;;;;;;;;;;;24.10;53.90;;;;;;5113619;28;19924;-62
2023/06/24 12:35:03;;;;;;;;;;;24.10;53.90;;;;;;5095285;28;20375;-64
2023/06/24 12:37:30;;;;;;;;;;;24.10;53.90;;;;;;5113650;28;20338;-62
2023/06/24 12:39:56;;;;;;;;;;;24.20;53.90;;;;;;5094451;28;20091;-62
2023/06/24 12:42:21;;;;;;;;;;;24.10;53.80;;;;;;5093659;28;20118;-62
2023/06/24 12:44:47;;;;;;;;;;;24.10;53.80;;;;;;5113542;28;19923;-62
2023/06/24 12:47:12;;;;;;;;;;;24.20;53.80;;;;;;5095146;28;20030;-62
2023/06/24 12:49:38;;;;;;;;;;;24.20;53.90;;;;;;5095077;28;19978;-62
2023/06/24 12:52:03;;;;;;;;;;;24.20;53.80;;;;;;5094988;28;19992;-62
2023/06/24 12:54:29;;;;;;;;;;;24.20;53.80;;;;;;5095365;28;19929;-64
2023/06/24 12:56:54;;;;;;;;;;;24.20;53.80;;;;;;5113231;28;20524;-64
2023/06/24 12:59:20;;;;;;;;;;;24.20;53.80;;;;;;5095263;28;19919;-64
2023/06/24 13:01:46;;;;;;;;;;;24.20;53.70;;;;;;5094934;28;19973;-62
2023/06/24 13:04:11;;;;;;;;;;;24.30;53.80;;;;;;5094858;28;19964;-65
2023/06/24 13:06:37;;;;;;;;;;;24.20;53.70;;;;;;5095146;28;19930;-62
2023/06/24 13:09:02;;;;;;;;;;;24.30;53.80;;;;;;5094770;28;20382;-62
2023/06/24 13:11:28;;;;;;;;;;;24.20;53.70;;;;;;5113134;28;19924;-61
2023/06/24 13:13:54;;;;;;;;;;;24.30;53.80;;;;;;5095024;28;19963;-62
2023/06/24 13:16:19;;;;;;;;;;;24.30;53.70;;;;;;5095071;28;20006;-62
2023/06/24 13:18:45;;;;;;;;;;;24.30;53.80;;;;;;5094696;28;20297;-64
2023/06/24 13:21:10;;;;;;;;;;;24.30;53.70;;;;;;5094929;28;19920;-62
2023/06/24 13:23:38;;;;;;;;;;;24.30;53.70;;;;;;5094541;28;20011;-61
2023/06/24 13:26:06;;;;;;;;;;;24.30;53.70;;;;;;5094725;28;19920;-64
2023/06/24 13:28:32;;;;;;;;;;;24.30;53.70;;;;;;5094879;28;19955;-62
2023/06/24 13:30:58;;;;;;;;;;;24.30;53.70;;;;;;5125153;27;19967;-62
2023/06/24 13:33:23;;;;;;;;;;;24.40;53.80;;;;;;5091406;28;20340;-62
2023/06/24 13:35:49;;;;;;;;;;;24.30;53.70;;;;;;5125161;28;19920;-62
2023/06/24 13:38:15;;;;;;;;;;;24.30;53.70;;;;;;5091651;28;20030;-62
2023/06/24 13:40:40;;;;;;;;;;;24.40;53.70;;;;;;5091285;28;20367;-62
2023/06/24 13:43:06;;;;;;;;;;;24.30;53.70;;;;;;5091355;28;19920;-61
2023/06/24 13:45:31;;;;;;;;;;;24.40;53.70;;;;;;5091293;28;19927;-61
2023/06/24 13:47:57;;;;;;;;;;;24.40;53.70;;;;;;5091012;28;20399;-62
2023/06/24 13:50:22;;;;;;;;;;;24.40;53.70;;;;;;5090893;28;19990;-64
2023/06/24 13:52:48;;;;;;;;;;;24.40;53.70;;;;;;5091202;28;19969;-64
2023/06/24 13:55:14;;;;;;;;;;;24.40;53.70;;;;;;5092216;28;19962;-62
2023/06/24 13:57:40;;;;;;;;;;;24.40;53.70;;;;;;5091169;28;19927;-62
2023/06/24 14:00:06;;;;;;;;;;;24.40;53.70;;;;;;5091337;28;20014;-62
2023/06/24 14:02:31;;;;;;;;;;;24.50;53.70;;;;;;5091264;28;19969;-62
2023/06/24 14:04:57;;;;;;;;;;;24.50;54.50;;;;;;5124943;28;20387;-64
2023/06/24 14:07:22;;;;;;;;;;;24.50;53.70;;;;;;5090880;28;19927;-62
2023/06/24 14:09:48;;;;;;;;;;;24.50;53.70;;;;;;5092083;28;19928;-62
2023/06/24 14:12:13;;;;;;;;;;;24.50;53.70;;;;;;5091050;28;20306;-61
2023/06/24 14:14:39;;;;;;;;;;;24.50;53.70;;;;;;5092094;28;19927;-61
2023/06/24 14:17:08;;;;;;;;;;;24.50;53.70;;;;;;5091013;28;19927;-61
2023/06/24 14:19:35;;;;;;;;;;;24.50;53.70;;;;;;5090817;28;19978;-64